Accueil
METAR-TAF:

METAR-TAF

Aéroports :

Bruxelles, Zaventem,

Aéroport de Bruxelles

latitude: Belgique, longitude: 50-54N, altitude: 004-32E m

Observation

Le bulletin a été fait il y a 40 minutes, à 20:50 UTC
Vent 4 kt de nord/nord-ouest
Température 5°C
Humidité 81%
Pression 1016 hPa
Visibilité 10 km ou plus
Nuages fragmentés à une hauteur de 3400 ft

METAR: EBBR 262050Z 34004KT 9999 BKN034 05/02 Q1016 NOSIG

Heure: 21:30 (21:30 UTC)

Prévision

Le bulletin a été fait il y a 4 heures et 17 minutes, à 17:13 UTC
Prévision valable du 26 à 18 UTC au 27 à 24 UTC
Vent 5 kt de nord/nord-ouest
Visibilité 10 km ou plus
Quelques nuages à une hauteur de 2500 ft
Nuages épars à une hauteur de 4000 ft
Probabilité 40% :
Temporairement
du 27 à 10 UTC au 27 à 18 UTC
Visibilité: 4000 m
averses de pluie, grésil ou neige roulée

TAF: EBBR 261713Z 2618/2724 34005KT 9999 FEW025 SCT040 PROB40 TEMPO 2710/2718 4000 SHRAGS

Observations et prévisions météorologiques de plus de 4000 aéroports (messages METAR et TAF).

Les stations disponibles sont représentées par des disques jaunes et rouges sur la carte.

Passer la souris dessus pour voir le nom de la station.

Cliquer dessus pour voir les observations et prévisions météorologiques.

Pour changer de carte: cliquez sur les boutons verts avec une croix noire pour zoomer, sur le bouton vert avec un tiret pour effectuer un zoom arrière, ou sur les flèches vertes pour les cartes adjacentes.


METAR-TAF: